createdAt,value
2018-09-14T00:00:20.909Z,100760.19
2018-09-14T00:02:49.961Z,100755.63
2018-09-14T00:05:18.935Z,100754.81
2018-09-14T00:07:47.926Z,100761.88
2018-09-14T00:10:16.970Z,100762.69
2018-09-14T00:12:46.004Z,100763.50
2018-09-14T00:15:15.008Z,100756.61
2018-09-14T00:17:44.040Z,100750.97
2018-09-14T00:20:12.999Z,100752.06
2018-09-14T00:22:41.989Z,100746.01
2018-09-14T00:25:10.973Z,100743.66
2018-09-14T00:27:39.930Z,100739.98
2018-09-14T00:30:08.921Z,100736.92
2018-09-14T00:32:37.877Z,100744.92
2018-09-14T00:35:07.007Z,100742.81
2018-09-14T00:37:36.060Z,100735.87
2018-09-14T00:40:05.244Z,100737.95
2018-09-14T00:42:34.281Z,100738.61
2018-09-14T00:45:03.239Z,100739.98
2018-09-14T00:47:32.294Z,100739.31
2018-09-14T00:50:01.294Z,100742.91
2018-09-14T00:52:30.239Z,100742.67
2018-09-14T00:54:59.223Z,100739.61
2018-09-14T00:57:28.203Z,100742.00
2018-09-14T00:59:57.257Z,100746.17
2018-09-14T01:02:26.198Z,100734.41
2018-09-14T01:04:55.165Z,100735.51
2018-09-14T01:07:24.130Z,100739.88
2018-09-14T01:09:53.138Z,100738.74
2018-09-14T01:12:22.070Z,100733.70
2018-09-14T01:14:51.033Z,100742.14
2018-09-14T01:17:20.126Z,100740.65
2018-09-14T01:19:49.111Z,100747.86
2018-09-14T01:22:18.058Z,100744.97
2018-09-14T01:24:47.090Z,100744.02
2018-09-14T01:27:16.117Z,100740.31
2018-09-14T01:29:45.158Z,100741.39
2018-09-14T01:32:14.112Z,100747.82
2018-09-14T01:34:43.099Z,100744.92
2018-09-14T01:37:12.026Z,100744.33
2018-09-14T01:39:41.059Z,100735.23
2018-09-14T01:42:10.050Z,100739.95
2018-09-14T01:44:39.061Z,100739.25
2018-09-14T01:47:08.002Z,100736.42
2018-09-14T01:49:37.005Z,100736.86
2018-09-14T01:52:05.966Z,100735.94
2018-09-14T01:54:34.962Z,100731.67
2018-09-14T01:57:03.975Z,100731.70
2018-09-14T01:59:33.084Z,100730.89
2018-09-14T02:02:02.050Z,100727.52
2018-09-14T02:04:31.165Z,100724.16
2018-09-14T02:07:00.075Z,100729.19
2018-09-14T02:09:29.105Z,100726.83
2018-09-14T02:11:58.062Z,100731.73
2018-09-14T02:14:27.017Z,100728.89
2018-09-14T02:16:56.110Z,100730.72
2018-09-14T02:19:25.174Z,100733.62
2018-09-14T02:21:54.292Z,100723.63
2018-09-14T02:24:23.330Z,100728.52
2018-09-14T02:26:52.318Z,100729.55
2018-09-14T02:29:21.374Z,100723.97
2018-09-14T02:31:50.397Z,100729.83
2018-09-14T02:34:19.378Z,100727.81
2018-09-14T02:36:48.365Z,100727.14
2018-09-14T02:39:17.278Z,100720.17
2018-09-14T02:41:46.489Z,100726.86
2018-09-14T02:44:15.455Z,100726.97
2018-09-14T02:46:44.410Z,100724.11
2018-09-14T02:49:13.381Z,100722.59
2018-09-14T02:51:42.507Z,100724.91
2018-09-14T02:54:11.587Z,100722.13
2018-09-14T02:56:40.658Z,100724.81
2018-09-14T02:59:09.658Z,100719.03
2018-09-14T03:01:38.694Z,100726.69
2018-09-14T03:04:08.037Z,100722.12
2018-09-14T03:06:37.097Z,100727.27
2018-09-14T03:09:08.228Z,100727.36
2018-09-14T03:11:37.270Z,100728.02
2018-09-14T03:14:06.334Z,100720.08
2018-09-14T03:16:35.374Z,100726.80
2018-09-14T03:19:04.474Z,100720.08
2018-09-14T03:21:33.515Z,100718.22
2018-09-14T03:24:02.443Z,100723.10
2018-09-14T03:26:31.405Z,100722.45
2018-09-14T03:29:00.372Z,100724.07
2018-09-14T03:31:29.406Z,100716.88
2018-09-14T03:33:58.443Z,100722.59
2018-09-14T03:36:27.446Z,100722.12
2018-09-14T03:38:56.474Z,100714.87
2018-09-14T03:41:25.465Z,100720.54
2018-09-14T03:43:54.426Z,100722.77
2018-09-14T03:46:23.483Z,100724.95
2018-09-14T03:48:52.555Z,100716.97
2018-09-14T03:51:21.599Z,100723.91
2018-09-14T03:53:50.642Z,100715.24
2018-09-14T03:56:19.610Z,100721.22
2018-09-14T03:58:48.557Z,100714.69
2018-09-14T04:01:17.567Z,100717.27
2018-09-14T04:03:46.708Z,100722.09
2018-09-14T04:06:15.835Z,100723.91
2018-09-14T04:08:44.787Z,100723.06
2018-09-14T04:11:13.798Z,100726.05
2018-09-14T04:13:42.757Z,100731.77
2018-09-14T04:16:11.843Z,100726.42
2018-09-14T04:18:41.064Z,100730.16
2018-09-14T04:21:10.087Z,100725.12
2018-09-14T04:23:39.214Z,100728.14
2018-09-14T04:26:08.122Z,100726.26
2018-09-14T04:28:37.262Z,100733.07
2018-09-14T04:31:06.338Z,100735.84
2018-09-14T04:33:35.398Z,100735.37
2018-09-14T04:36:04.550Z,100727.33
2018-09-14T04:38:33.539Z,100725.42
2018-09-14T04:41:02.467Z,100729.83
2018-09-14T04:43:31.464Z,100723.44
2018-09-14T04:46:00.523Z,100728.31
2018-09-14T04:48:29.561Z,100723.80
2018-09-14T04:50:58.697Z,100727.64
2018-09-14T04:53:27.682Z,100726.80
2018-09-14T04:55:56.778Z,100723.56
2018-09-14T04:58:25.808Z,100717.89
2018-09-14T05:00:54.855Z,100717.22
2018-09-14T05:03:23.822Z,100714.14
2018-09-14T05:05:52.871Z,100716.83
2018-09-14T05:08:21.902Z,100721.23
2018-09-14T05:10:51.021Z,100719.08
2018-09-14T05:13:19.947Z,100726.30
2018-09-14T05:15:48.950Z,100724.60
2018-09-14T05:18:18.019Z,100725.49
2018-09-14T05:20:47.169Z,100726.98
2018-09-14T05:23:16.138Z,100734.90
2018-09-14T05:25:45.147Z,100748.02
2018-09-14T05:28:14.309Z,100748.68
2018-09-14T05:30:43.771Z,100745.46
2018-09-14T05:33:13.075Z,100747.06
2018-09-14T05:35:42.247Z,100744.43
2018-09-14T05:38:11.519Z,100753.19
2018-09-14T05:40:40.904Z,100750.84
2018-09-14T05:43:10.390Z,100755.56
2018-09-14T05:45:39.786Z,100758.59
2018-09-14T05:48:09.019Z,100762.13
2018-09-14T05:50:38.039Z,100758.25
2018-09-14T05:53:07.077Z,100761.45
2018-09-14T05:55:42.542Z,100767.25
2018-09-14T05:58:11.567Z,100763.00
2018-09-14T06:00:40.534Z,100758.76
2018-09-14T06:03:09.587Z,100758.38
2018-09-14T06:05:38.647Z,100759.80
2018-09-14T06:08:07.713Z,100761.98
2018-09-14T06:10:36.653Z,100766.20
2018-09-14T06:13:05.653Z,100764.90
2018-09-14T06:15:34.712Z,100760.38
2018-09-14T06:18:04.763Z,100759.57
2018-09-14T06:20:33.770Z,100761.58
2018-09-14T06:23:02.771Z,100755.31
2018-09-14T06:25:31.757Z,100754.08
2018-09-14T06:28:00.839Z,100764.20
2018-09-14T06:30:29.833Z,100759.19
2018-09-14T06:32:58.862Z,100767.08
2018-09-14T06:35:27.801Z,100768.61
2018-09-14T06:37:56.882Z,100769.95
2018-09-14T06:40:25.847Z,100777.34
2018-09-14T06:42:54.906Z,100780.98
2018-09-14T06:45:23.924Z,100785.69
2018-09-14T06:47:53.015Z,100786.88
2018-09-14T06:50:22.013Z,100782.60
2018-09-14T06:52:51.069Z,100787.76
2018-09-14T06:55:20.033Z,100786.69
2018-09-14T06:57:49.035Z,100790.30
2018-09-14T07:00:18.095Z,100793.59
2018-09-14T07:02:47.091Z,100795.14
2018-09-14T07:05:16.106Z,100788.28
2018-09-14T07:07:45.106Z,100789.02
2018-09-14T07:10:14.078Z,100787.62
2018-09-14T07:12:43.048Z,100787.86
2018-09-14T07:15:11.978Z,100792.98
2018-09-14T07:17:41.154Z,100785.67
2018-09-14T07:20:10.423Z,100789.03
2018-09-14T07:22:39.386Z,100789.48
2018-09-14T07:25:08.429Z,100788.56
2018-09-14T07:27:37.449Z,100795.68
2018-09-14T07:30:06.877Z,100800.11
2018-09-14T07:32:35.938Z,100803.13
2018-09-14T07:35:04.940Z,100800.47
2018-09-14T07:37:33.944Z,100809.30
2018-09-14T07:40:02.878Z,100810.64
2018-09-14T07:42:32.011Z,100817.48
2018-09-14T07:45:00.953Z,100819.05
2018-09-14T07:47:29.914Z,100823.87
2018-09-14T07:49:58.834Z,100819.02
2018-09-14T07:52:27.842Z,100817.91
2018-09-14T07:54:56.761Z,100823.19
2018-09-14T07:57:25.762Z,100822.24
2018-09-14T07:59:54.750Z,100826.03
2018-09-14T08:02:23.760Z,100822.62
2018-09-14T08:04:52.744Z,100823.74
2018-09-14T08:07:21.775Z,100819.63
2018-09-14T08:09:50.798Z,100817.77
2018-09-14T08:12:19.746Z,100826.77
2018-09-14T08:14:48.697Z,100819.02
2018-09-14T08:17:17.695Z,100820.73
2018-09-14T08:19:46.597Z,100819.73
2018-09-14T08:22:15.629Z,100827.42
2018-09-14T08:24:44.575Z,100821.77
2018-09-14T08:27:13.757Z,100823.40
2018-09-14T08:29:42.698Z,100821.43
2018-09-14T08:32:11.719Z,100828.39
2018-09-14T08:34:40.711Z,100830.36
2018-09-14T08:37:09.687Z,100830.71
2018-09-14T08:39:38.694Z,100836.64
2018-09-14T08:42:07.681Z,100834.50
2018-09-14T08:44:36.679Z,100839.06
2018-09-14T08:47:05.813Z,100829.93
2018-09-14T08:49:34.786Z,100826.25
2018-09-14T08:52:03.756Z,100829.91
2018-09-14T08:54:32.909Z,100837.53
2018-09-14T08:57:01.842Z,100830.10
2018-09-14T08:59:30.850Z,100841.08
2018-09-14T09:01:59.827Z,100831.10
2018-09-14T09:04:28.943Z,100834.97
2018-09-14T09:06:57.875Z,100846.48
2018-09-14T09:09:26.853Z,100835.27
2018-09-14T09:11:55.863Z,100848.17
2018-09-14T09:14:24.982Z,100845.58
2018-09-14T09:16:53.946Z,100843.08
2018-09-14T09:19:22.908Z,100841.97
2018-09-14T09:21:51.846Z,100836.46
2018-09-14T09:24:20.811Z,100833.30
2018-09-14T09:26:49.722Z,100828.44
2018-09-14T09:29:18.775Z,100835.32
2018-09-14T09:31:47.834Z,100831.03
2018-09-14T09:34:17.003Z,100829.33
2018-09-14T09:36:45.950Z,100833.55
2018-09-14T09:39:14.987Z,100831.03
2018-09-14T09:41:43.913Z,100842.67
2018-09-14T09:44:12.846Z,100834.50
2018-09-14T09:46:41.740Z,100833.98
2018-09-14T09:49:10.687Z,100835.14
2018-09-14T09:51:39.722Z,100835.02
2018-09-14T09:54:08.753Z,100833.52
2018-09-14T09:56:37.886Z,100834.59
2018-09-14T09:59:06.886Z,100830.18
2018-09-14T10:01:39.894Z,100824.77
2018-09-14T10:04:13.999Z,100818.86
2018-09-14T10:06:42.986Z,100821.59
2018-09-14T10:09:11.948Z,100823.95
2018-09-14T10:11:40.994Z,100816.59
2018-09-14T10:14:10.060Z,100816.69
2018-09-14T10:16:39.049Z,100818.91
2018-09-14T10:19:08.067Z,100818.47
2018-09-14T10:21:37.037Z,100821.08
2018-09-14T10:24:06.053Z,100823.26
2018-09-14T10:26:35.041Z,100814.24
2018-09-14T10:29:04.059Z,100810.09
2018-09-14T10:31:33.017Z,100812.50
2018-09-14T10:34:02.112Z,100815.15
2018-09-14T10:36:31.081Z,100814.53
2018-09-14T10:39:00.047Z,100812.67
2018-09-14T10:41:29.091Z,100811.09
2018-09-14T10:43:58.170Z,100813.17
2018-09-14T10:46:27.102Z,100807.58
2018-09-14T10:48:56.086Z,100800.15
2018-09-14T10:51:25.118Z,100799.17
2018-09-14T10:53:54.091Z,100795.27
2018-09-14T10:56:23.098Z,100792.02
2018-09-14T10:58:52.153Z,100796.28
2018-09-14T11:01:21.091Z,100795.20
2018-09-14T11:03:50.077Z,100792.55
2018-09-14T11:06:19.093Z,100792.53
2018-09-14T11:08:48.098Z,100790.84
2018-09-14T11:11:17.094Z,100787.12
2018-09-14T11:13:46.155Z,100777.38
2018-09-14T11:16:15.098Z,100776.58
2018-09-14T11:18:44.185Z,100774.97
2018-09-14T11:21:13.179Z,100769.30
2018-09-14T11:23:42.189Z,100768.67
2018-09-14T11:26:11.205Z,100763.71
2018-09-14T11:28:40.189Z,100769.59
2018-09-14T11:31:09.210Z,100767.02
2018-09-14T11:33:38.229Z,100761.00
2018-09-14T11:36:07.413Z,100766.01
2018-09-14T11:38:36.443Z,100761.23
2018-09-14T11:41:05.521Z,100753.19
2018-09-14T11:43:34.458Z,100756.38
2018-09-14T11:46:03.477Z,100751.73
2018-09-14T11:48:32.517Z,100746.03
2018-09-14T11:51:01.520Z,100742.84
2018-09-14T11:53:30.529Z,100745.21
2018-09-14T11:55:59.510Z,100742.58
2018-09-14T11:58:28.506Z,100738.73
2018-09-14T12:00:57.609Z,100738.40
2018-09-14T12:03:26.566Z,100731.80
2018-09-14T12:05:55.642Z,100731.48
2018-09-14T12:08:24.581Z,100736.67
2018-09-14T12:10:53.617Z,100736.40
2018-09-14T12:13:22.642Z,100732.76
2018-09-14T12:15:51.720Z,100729.20
2018-09-14T12:18:21.066Z,100727.75
2018-09-14T12:20:50.169Z,100724.28
2018-09-14T12:23:19.173Z,100720.73
2018-09-14T12:25:48.327Z,100722.80
2018-09-14T12:28:17.335Z,100715.11
2018-09-14T12:30:46.266Z,100714.00
2018-09-14T12:33:15.258Z,100718.75
2018-09-14T12:35:44.384Z,100713.10
2018-09-14T12:38:13.381Z,100716.98
2018-09-14T12:40:42.393Z,100712.78
2018-09-14T12:43:11.358Z,100708.70
2018-09-14T12:45:40.350Z,100719.82
2018-09-14T12:48:09.318Z,100710.52
2018-09-14T12:50:38.398Z,100721.13
2018-09-14T12:53:07.366Z,100714.94
2018-09-14T12:55:36.398Z,100708.41
2018-09-14T12:58:05.381Z,100719.61
2018-09-14T13:00:34.415Z,100715.45
2018-09-14T13:03:03.357Z,100709.40
2018-09-14T13:05:32.310Z,100706.23
2018-09-14T13:08:01.241Z,100706.75
2018-09-14T13:10:30.289Z,100708.31
2018-09-14T13:12:59.293Z,100702.67
2018-09-14T13:15:28.338Z,100704.57
2018-09-14T13:17:57.326Z,100699.36
2018-09-14T13:20:26.337Z,100701.31
2018-09-14T13:22:55.314Z,100696.56
2018-09-14T13:25:24.275Z,100693.27
2018-09-14T13:27:53.353Z,100693.22
2018-09-14T13:30:22.345Z,100688.25
2018-09-14T13:32:52.144Z,100693.09
2018-09-14T13:35:22.981Z,100691.39
2018-09-14T13:37:52.641Z,100697.19
2018-09-14T13:40:22.010Z,100685.56
2018-09-14T13:42:51.418Z,100688.70
2018-09-14T13:45:20.539Z,100682.89
2018-09-14T13:47:49.449Z,100679.55
2018-09-14T13:50:18.459Z,100668.78
2018-09-14T13:52:47.469Z,100666.72
2018-09-14T13:55:16.561Z,100667.06
2018-09-14T13:57:52.198Z,100662.45
2018-09-14T14:00:21.225Z,100661.61
2018-09-14T14:02:50.292Z,100663.27
2018-09-14T14:05:19.275Z,100659.20
2018-09-14T14:07:48.198Z,100664.82
2018-09-14T14:10:17.225Z,100665.34
2018-09-14T14:12:46.217Z,100669.39
2018-09-14T14:15:15.376Z,100671.73
2018-09-14T14:17:44.389Z,100661.21
2018-09-14T14:20:13.522Z,100667.50
2018-09-14T14:22:42.537Z,100660.14
2018-09-14T14:25:11.541Z,100655.89
2018-09-14T14:27:40.566Z,100652.63
2018-09-14T14:30:09.600Z,100651.61
2018-09-14T14:32:38.563Z,100655.76
2018-09-14T14:35:07.589Z,100651.45
2018-09-14T14:37:36.557Z,100643.15
2018-09-14T14:40:05.620Z,100649.16
2018-09-14T14:42:34.574Z,100642.77
2018-09-14T14:45:03.547Z,100639.70
2018-09-14T14:47:32.462Z,100637.91
2018-09-14T14:50:01.410Z,100649.16
2018-09-14T14:52:30.429Z,100641.23
2018-09-14T14:54:59.402Z,100637.34
2018-09-14T14:57:28.373Z,100644.63
2018-09-14T14:59:57.376Z,100638.57
2018-09-14T15:02:26.412Z,100638.75
2018-09-14T15:04:55.421Z,100634.45
2018-09-14T15:07:24.445Z,100638.02
2018-09-14T15:09:53.541Z,100627.89
2018-09-14T15:12:22.499Z,100630.41
2018-09-14T15:14:51.510Z,100627.00
2018-09-14T15:17:20.632Z,100629.41
2018-09-14T15:19:49.550Z,100628.23
2018-09-14T15:22:18.546Z,100632.30
2018-09-14T15:24:47.554Z,100630.47
2018-09-14T15:27:16.659Z,100631.99
2018-09-14T15:29:45.634Z,100630.84
2018-09-14T15:32:14.614Z,100630.10
2018-09-14T15:34:43.618Z,100639.55
2018-09-14T15:37:12.589Z,100634.16
2018-09-14T15:39:41.538Z,100629.89
2018-09-14T15:42:10.579Z,100631.39
2018-09-14T15:44:39.533Z,100629.89
2018-09-14T15:47:08.518Z,100634.61
2018-09-14T15:49:37.412Z,100638.09
2018-09-14T15:52:06.413Z,100635.88
2018-09-14T15:54:35.366Z,100634.33
2018-09-14T15:57:04.421Z,100632.44
2018-09-14T15:59:33.394Z,100634.13
2018-09-14T16:02:02.388Z,100637.99
2018-09-14T16:04:31.356Z,100632.22
2018-09-14T16:07:00.415Z,100632.52
2018-09-14T16:09:29.334Z,100631.17
2018-09-14T16:11:58.309Z,100634.44
2018-09-14T16:14:27.318Z,100633.37
2018-09-14T16:16:56.286Z,100634.02
2018-09-14T16:19:25.274Z,100629.20
2018-09-14T16:21:54.287Z,100635.08
2018-09-14T16:24:23.238Z,100627.65
2018-09-14T16:26:52.427Z,100631.73
2018-09-14T16:29:21.461Z,100636.59
2018-09-14T16:31:50.502Z,100633.70
2018-09-14T16:34:19.384Z,100642.36
2018-09-14T16:36:48.424Z,100643.10
2018-09-14T16:39:17.509Z,100639.22
2018-09-14T16:41:46.557Z,100645.44
2018-09-14T16:44:15.533Z,100649.52
2018-09-14T16:46:44.520Z,100646.86
2018-09-14T16:49:13.465Z,100654.72
2018-09-14T16:51:42.528Z,100652.85
2018-09-14T16:54:11.441Z,100653.34
2018-09-14T16:56:40.642Z,100658.06
2018-09-14T16:59:09.606Z,100653.91
2018-09-14T17:01:38.568Z,100650.30
2018-09-14T17:04:07.555Z,100656.17
2018-09-14T17:06:36.571Z,100652.53
2018-09-14T17:09:07.716Z,100661.09
2018-09-14T17:11:36.774Z,100659.11
2018-09-14T17:14:06.633Z,100655.48
2018-09-14T17:16:35.619Z,100664.94
2018-09-14T17:19:04.594Z,100664.50
2018-09-14T17:21:33.650Z,100657.18
2018-09-14T17:24:02.630Z,100658.02
2018-09-14T17:26:31.684Z,100658.23
2018-09-14T17:29:00.695Z,100663.37
2018-09-14T17:31:29.814Z,100664.67
2018-09-14T17:33:58.861Z,100663.27
2018-09-14T17:36:27.882Z,100663.03
2018-09-14T17:38:56.853Z,100663.49
2018-09-14T17:41:25.906Z,100665.17
2018-09-14T17:43:54.938Z,100663.17
2018-09-14T17:46:23.958Z,100663.47
2018-09-14T17:48:52.955Z,100665.50
2018-09-14T17:51:21.985Z,100662.30
2018-09-14T17:53:50.935Z,100666.47
2018-09-14T17:56:19.985Z,100666.27
2018-09-14T17:58:49.218Z,100659.77
2018-09-14T18:01:18.210Z,100661.93
2018-09-14T18:03:47.276Z,100657.08
2018-09-14T18:06:16.281Z,100661.30
2018-09-14T18:08:45.310Z,100666.86
2018-09-14T18:11:14.396Z,100666.77
2018-09-14T18:13:43.435Z,100668.13
2018-09-14T18:16:12.509Z,100668.94
2018-09-14T18:18:41.481Z,100668.77
2018-09-14T18:21:10.434Z,100671.79
2018-09-14T18:23:39.454Z,100676.11
2018-09-14T18:26:08.487Z,100681.98
2018-09-14T18:28:37.514Z,100678.75
2018-09-14T18:31:06.717Z,100683.34
2018-09-14T18:33:35.803Z,100678.75
2018-09-14T18:36:04.794Z,100682.77
2018-09-14T18:38:33.744Z,100690.06
2018-09-14T18:41:02.691Z,100686.32
2018-09-14T18:43:31.736Z,100684.56
2018-09-14T18:46:00.810Z,100685.92
2018-09-14T18:48:29.880Z,100685.48
2018-09-14T18:50:58.814Z,100686.55
2018-09-14T18:53:27.860Z,100685.67
2018-09-14T18:55:56.792Z,100688.23
2018-09-14T18:58:25.864Z,100682.66
2018-09-14T19:00:54.805Z,100683.89
2018-09-14T19:03:23.779Z,100693.30
2018-09-14T19:05:52.722Z,100679.84
2018-09-14T19:08:22.162Z,100687.89
2018-09-14T19:10:51.213Z,100690.92
2018-09-14T19:13:20.155Z,100688.59
2018-09-14T19:15:49.269Z,100698.39
2018-09-14T19:18:18.182Z,100697.58
2018-09-14T19:20:47.149Z,100700.78
2018-09-14T19:23:16.115Z,100703.23
2018-09-14T19:25:45.165Z,100707.36
2018-09-14T19:28:14.268Z,100713.34
2018-09-14T19:30:43.265Z,100713.36
2018-09-14T19:33:12.183Z,100710.61
2018-09-14T19:35:41.186Z,100711.23
2018-09-14T19:38:10.122Z,100720.95
2018-09-14T19:40:39.095Z,100709.92
2018-09-14T19:43:08.031Z,100726.48
2018-09-14T19:45:36.986Z,100722.87
2018-09-14T19:48:06.064Z,100724.41
2018-09-14T19:50:35.014Z,100721.56
2018-09-14T19:53:03.947Z,100721.37
2018-09-14T19:55:33.007Z,100717.00
2018-09-14T19:58:01.946Z,100726.16
2018-09-14T20:00:30.922Z,100721.10
2018-09-14T20:02:59.853Z,100728.72
2018-09-14T20:05:28.834Z,100741.00
2018-09-14T20:07:57.797Z,100736.73
2018-09-14T20:10:26.802Z,100735.16
2018-09-14T20:12:55.737Z,100746.66
2018-09-14T20:15:24.654Z,100749.16
2018-09-14T20:17:53.661Z,100745.78
2018-09-14T20:20:22.734Z,100754.24
2018-09-14T20:22:51.786Z,100756.58
2018-09-14T20:25:20.709Z,100752.81
2018-09-14T20:27:49.810Z,100749.45
2018-09-14T20:30:18.835Z,100748.24
2018-09-14T20:32:47.781Z,100755.09
2018-09-14T20:35:16.725Z,100761.24
2018-09-14T20:37:45.806Z,100753.13
2018-09-14T20:40:14.759Z,100753.09
2018-09-14T20:42:43.786Z,100761.26
2018-09-14T20:45:12.734Z,100757.20
2018-09-14T20:47:41.869Z,100754.91
2018-09-14T20:50:10.775Z,100757.75
2018-09-14T20:52:39.785Z,100767.67
2018-09-14T20:55:08.722Z,100765.58
2018-09-14T20:57:37.698Z,100774.95
2018-09-14T21:00:06.707Z,100773.61
2018-09-14T21:02:35.702Z,100775.47
2018-09-14T21:05:04.705Z,100771.73
2018-09-14T21:07:33.726Z,100773.34
2018-09-14T21:10:02.690Z,100777.30
2018-09-14T21:12:31.674Z,100778.97
2018-09-14T21:15:00.712Z,100777.66
2018-09-14T21:17:29.700Z,100783.39
2018-09-14T21:19:58.633Z,100779.96
2018-09-14T21:22:27.663Z,100783.45
2018-09-14T21:24:56.707Z,100780.92
2018-09-14T21:27:25.731Z,100788.38
2018-09-14T21:29:54.732Z,100786.63
2018-09-14T21:32:23.722Z,100785.28
2018-09-14T21:34:52.703Z,100795.59
2018-09-14T21:37:21.733Z,100793.91
2018-09-14T21:39:50.730Z,100798.82
2018-09-14T21:42:19.709Z,100799.20
2018-09-14T21:44:48.683Z,100808.94
2018-09-14T21:47:17.766Z,100802.55
2018-09-14T21:49:46.793Z,100809.46
2018-09-14T21:52:15.775Z,100803.41
2018-09-14T21:54:44.773Z,100805.45
2018-09-14T21:57:13.763Z,100807.34
2018-09-14T21:59:42.700Z,100812.25
2018-09-14T22:02:11.691Z,100807.33
2018-09-14T22:04:40.682Z,100807.30
2018-09-14T22:07:10.005Z,100804.27
2018-09-14T22:09:39.050Z,100809.52
2018-09-14T22:12:08.204Z,100814.80
2018-09-14T22:14:37.175Z,100809.03
2018-09-14T22:17:06.148Z,100808.06
2018-09-14T22:19:35.092Z,100804.69
2018-09-14T22:22:04.209Z,100814.45
2018-09-14T22:24:33.073Z,100815.12
2018-09-14T22:27:02.076Z,100820.01
2018-09-14T22:29:31.058Z,100829.10
2018-09-14T22:32:00.023Z,100830.13
2018-09-14T22:34:29.068Z,100832.63
2018-09-14T22:36:58.168Z,100822.70
2018-09-14T22:39:27.154Z,100829.11
2018-09-14T22:41:56.144Z,100824.91
2018-09-14T22:44:25.131Z,100824.22
2018-09-14T22:46:54.139Z,100824.91
2018-09-14T22:49:23.111Z,100820.68
2018-09-14T22:51:52.341Z,100828.11
2018-09-14T22:54:21.350Z,100836.63
2018-09-14T22:56:50.302Z,100824.50
2018-09-14T22:59:19.306Z,100825.17
2018-09-14T23:01:52.330Z,100831.59
2018-09-14T23:04:21.602Z,100838.06
2018-09-14T23:06:51.120Z,100846.42
2018-09-14T23:09:20.174Z,100837.81
2018-09-14T23:11:49.111Z,100842.02
2018-09-14T23:14:18.110Z,100843.16
2018-09-14T23:16:47.106Z,100845.86
2018-09-14T23:19:16.117Z,100848.14
2018-09-14T23:21:45.184Z,100844.81
2018-09-14T23:24:14.164Z,100845.04
2018-09-14T23:26:43.294Z,100849.06
2018-09-14T23:29:12.370Z,100852.72
2018-09-14T23:31:41.369Z,100853.95
2018-09-14T23:34:10.325Z,100856.03
2018-09-14T23:36:39.274Z,100857.76
2018-09-14T23:39:09.899Z,100860.13
2018-09-14T23:41:38.881Z,100868.47
2018-09-14T23:44:08.124Z,100865.73
2018-09-14T23:46:37.113Z,100870.05
2018-09-14T23:49:06.106Z,100860.69
2018-09-14T23:51:35.008Z,100866.79
2018-09-14T23:54:04.021Z,100871.12
2018-09-14T23:56:32.961Z,100870.84
2018-09-14T23:59:01.961Z,100872.19
